Time;durP1;ratioP1;P1;durP2;ratioP2;P2;SDS_P1;SDS_P2;PMS_P1;PMS_P2;Temp;Humidity;BMP_temperature;BMP_pressure;BME280_temperature;BME280_humidity;BME280_pressure;Samples;Min_cycle;Max_cycle;Signal;HPM_P1;HPM_P2
2021/10/15 00:02:08;;;;;;;0.40;0.40;;;7.30;99.90;;;;;;5012834;28;20463;-84
2021/10/15 00:04:34;;;;;;;0.60;0.53;;;7.40;99.90;;;;;;5015126;28;20816;-81
2021/10/15 00:07:01;;;;;;;0.40;0.37;;;7.30;99.90;;;;;;5016825;28;20455;-81
2021/10/15 00:09:28;;;;;;;0.30;0.30;;;7.30;99.90;;;;;;5017086;28;20443;-81
2021/10/15 00:11:55;;;;;;;0.53;0.53;;;7.30;99.90;;;;;;5016663;28;20471;-82
2021/10/15 00:14:23;;;;;;;0.30;0.30;;;7.30;99.90;;;;;;5016686;28;20447;-82
2021/10/15 00:16:50;;;;;;;0.40;0.40;;;7.40;99.90;;;;;;5016309;28;20455;-84
2021/10/15 00:19:17;;;;;;;0.30;0.30;;;7.40;99.90;;;;;;5016586;28;20475;-82
2021/10/15 00:21:43;;;;;;;0.40;0.40;;;7.30;99.90;;;;;;5016208;28;20455;-83
2021/10/15 00:24:10;;;;;;;0.50;0.37;;;7.40;99.90;;;;;;5016233;28;20970;-82
2021/10/15 00:26:37;;;;;;;1.07;0.50;;;7.40;99.90;;;;;;5016159;28;20826;-83
2021/10/15 00:29:05;;;;;;;0.90;0.87;;;7.30;99.90;;;;;;5016084;28;20455;-82
2021/10/15 00:31:33;;;;;;;0.33;0.33;;;7.30;99.90;;;;;;5016399;28;20463;-81
2021/10/15 00:34:00;;;;;;;0.30;0.30;;;7.30;99.90;;;;;;5016290;28;20436;-81
2021/10/15 00:36:27;;;;;;;1.03;0.40;;;7.30;99.90;;;;;;5016306;28;20451;-83
2021/10/15 00:38:53;;;;;;;0.30;0.30;;;7.30;99.90;;;;;;5015979;28;20844;-85
2021/10/15 00:41:20;;;;;;;0.40;0.30;;;7.30;99.90;;;;;;5016109;28;20463;-82
2021/10/15 00:44:06;;;;;;;0.63;0.63;;;7.30;99.90;;;;;;5016214;28;20455;-83
2021/10/15 00:46:36;;;;;;;0.40;0.30;;;7.30;99.90;;;;;;5016156;28;20431;-83
2021/10/15 00:49:03;;;;;;;0.30;0.30;;;7.20;99.90;;;;;;5015774;28;20478;-83
2021/10/15 00:51:31;;;;;;;0.67;0.30;;;7.20;99.90;;;;;;5015814;28;20455;-83
2021/10/15 00:53:57;;;;;;;0.40;0.40;;;7.20;99.90;;;;;;5016262;28;20486;-83
2021/10/15 00:56:25;;;;;;;0.30;0.20;;;7.20;99.90;;;;;;5015721;28;20431;-84
2021/10/15 00:58:52;;;;;;;0.60;0.50;;;7.20;99.90;;;;;;5016243;28;20476;-80
2021/10/15 01:01:19;;;;;;;1.07;0.90;;;7.20;99.90;;;;;;5015538;28;20459;-80
2021/10/15 01:03:47;;;;;;;0.50;0.33;;;7.20;99.90;;;;;;5015784;28;20451;-80
2021/10/15 01:06:14;;;;;;;0.60;0.60;;;7.10;99.90;;;;;;5015484;28;20459;-80
2021/10/15 01:08:46;;;;;;;0.60;0.60;;;7.10;99.90;;;;;;5015683;28;20447;-79
2021/10/15 01:11:15;;;;;;;3.70;0.40;;;7.10;99.90;;;;;;5016168;28;20490;-79
2021/10/15 01:13:42;;;;;;;0.30;0.30;;;7.10;99.90;;;;;;5015591;28;20452;-79
2021/10/15 01:16:10;;;;;;;0.70;0.50;;;7.10;99.90;;;;;;5014318;28;20439;-80
2021/10/15 01:18:38;;;;;;;0.40;0.30;;;7.10;99.90;;;;;;5015484;28;20455;-81
2021/10/15 01:21:08;;;;;;;0.70;0.60;;;7.10;99.90;;;;;;5015384;28;20479;-81
2021/10/15 01:23:35;;;;;;;0.37;0.33;;;7.10;99.90;;;;;;5015375;28;20459;-80
2021/10/15 01:26:02;;;;;;;0.30;0.30;;;7.10;99.90;;;;;;5015378;28;20942;-80
2021/10/15 01:28:30;;;;;;;0.40;0.30;;;7.10;99.90;;;;;;5015418;28;20469;-80
2021/10/15 01:30:58;;;;;;;0.30;0.30;;;7.00;99.90;;;;;;5015231;28;20472;-80
2021/10/15 01:33:25;;;;;;;0.30;0.30;;;7.10;99.90;;;;;;5015228;28;20455;-81
2021/10/15 01:35:52;;;;;;;0.30;0.30;;;7.00;99.90;;;;;;5015161;28;20474;-80
2021/10/15 01:38:20;;;;;;;0.30;0.20;;;7.00;99.90;;;;;;5015190;28;20455;-81
2021/10/15 01:40:47;;;;;;;0.30;0.30;;;7.00;99.90;;;;;;5014998;28;20491;-81
2021/10/15 01:43:20;;;;;;;0.60;0.60;;;6.90;99.90;;;;;;5014966;28;20459;-81
2021/10/15 01:45:47;;;;;;;0.40;0.30;;;6.90;99.90;;;;;;5015104;28;20432;-80
2021/10/15 01:48:14;;;;;;;0.30;0.27;;;6.90;99.90;;;;;;5014500;28;21033;-80
2021/10/15 01:50:41;;;;;;;0.30;0.30;;;6.90;99.90;;;;;;5014574;28;20982;-80
2021/10/15 01:53:08;;;;;;;1.60;0.70;;;6.90;99.90;;;;;;5014895;28;20462;-80
2021/10/15 01:55:36;;;;;;;0.50;0.50;;;6.90;99.90;;;;;;5015541;28;20436;-80
2021/10/15 01:58:03;;;;;;;0.30;0.30;;;6.80;99.90;;;;;;5014591;28;20970;-80
2021/10/15 02:00:30;;;;;;;0.30;0.30;;;6.80;99.90;;;;;;5014457;28;20483;-79
2021/10/15 02:02:57;;;;;;;0.30;0.30;;;6.80;99.90;;;;;;5014742;28;20447;-80
2021/10/15 02:05:23;;;;;;;0.40;0.40;;;6.80;99.90;;;;;;5014881;28;20957;-80
2021/10/15 02:07:50;;;;;;;1.07;0.33;;;6.80;99.90;;;;;;5015061;28;20815;-81
2021/10/15 02:10:18;;;;;;;0.60;0.60;;;6.80;99.90;;;;;;5014455;28;20962;-80
2021/10/15 02:12:47;;;;;;;1.07;0.40;;;6.70;99.90;;;;;;5014699;28;21006;-81
2021/10/15 02:15:14;;;;;;;0.50;0.50;;;6.70;99.90;;;;;;5014842;28;20441;-80
2021/10/15 02:17:41;;;;;;;0.40;0.30;;;6.60;99.90;;;;;;5015228;28;20956;-80
2021/10/15 02:20:11;;;;;;;0.50;0.40;;;6.60;99.90;;;;;;5015163;28;20483;-80
2021/10/15 02:22:39;;;;;;;0.40;0.40;;;6.60;99.90;;;;;;5015363;28;20471;-79
2021/10/15 02:25:07;;;;;;;0.40;0.40;;;6.60;99.90;;;;;;5015384;28;20805;-79
2021/10/15 02:27:35;;;;;;;0.43;0.43;;;6.60;99.90;;;;;;5015191;28;20821;-80
2021/10/15 02:30:04;;;;;;;0.30;0.20;;;6.50;99.90;;;;;;5015905;28;20447;-79
2021/10/15 02:32:31;;;;;;;0.30;0.30;;;6.50;99.90;;;;;;5015958;28;20490;-79
2021/10/15 02:34:57;;;;;;;0.40;0.40;;;6.50;99.90;;;;;;5016865;28;20459;-79
2021/10/15 02:37:24;;;;;;;0.30;0.30;;;6.50;99.90;;;;;;5017561;28;20451;-81
2021/10/15 02:39:51;;;;;;;0.80;0.40;;;6.40;99.90;;;;;;5020218;28;20490;-80
2021/10/15 02:42:18;;;;;;;0.40;0.30;;;6.40;99.90;;;;;;5019096;28;20472;-80
2021/10/15 02:44:45;;;;;;;0.43;0.43;;;6.40;99.90;;;;;;5018413;28;20452;-79
2021/10/15 02:47:13;;;;;;;0.30;0.27;;;6.40;99.90;;;;;;5019475;28;20451;-79
2021/10/15 02:49:39;;;;;;;0.37;0.30;;;6.30;99.90;;;;;;5018499;28;20479;-80
2021/10/15 02:52:06;;;;;;;0.30;0.30;;;6.30;99.90;;;;;;5018895;28;20471;-79
2021/10/15 02:54:33;;;;;;;0.30;0.30;;;6.30;99.90;;;;;;5018930;28;20943;-80
2021/10/15 02:57:00;;;;;;;0.40;0.30;;;6.20;99.90;;;;;;5018850;28;20444;-80
2021/10/15 02:59:27;;;;;;;0.30;0.30;;;6.20;99.90;;;;;;5019418;28;20487;-80
2021/10/15 03:01:53;;;;;;;0.60;0.60;;;6.20;99.90;;;;;;5020932;28;20479;-80
2021/10/15 03:04:21;;;;;;;0.40;0.30;;;6.20;99.90;;;;;;5020005;28;20959;-81
2021/10/15 03:06:48;;;;;;;0.30;0.30;;;6.20;99.90;;;;;;5016628;28;20447;-80
2021/10/15 03:09:15;;;;;;;0.40;0.30;;;6.20;99.90;;;;;;5018191;28;20452;-80
2021/10/15 03:11:42;;;;;;;0.30;0.30;;;6.20;99.90;;;;;;5017458;28;20480;-80
2021/10/15 03:14:08;;;;;;;0.50;0.40;;;6.20;99.90;;;;;;5017388;28;20943;-80
2021/10/15 03:16:35;;;;;;;0.67;0.67;;;6.20;99.90;;;;;;5018495;28;20443;-80
2021/10/15 03:19:02;;;;;;;0.40;0.30;;;6.20;99.90;;;;;;5018498;28;20444;-80
2021/10/15 03:21:30;;;;;;;0.50;0.50;;;6.20;99.90;;;;;;5019128;28;20491;-80
2021/10/15 03:23:57;;;;;;;0.30;0.30;;;6.20;99.90;;;;;;5019846;28;20458;-80
2021/10/15 03:26:23;;;;;;;0.30;0.30;;;6.10;99.90;;;;;;5016806;28;20452;-79
2021/10/15 03:28:50;;;;;;;0.30;0.30;;;6.10;99.90;;;;;;5016743;28;20459;-80
2021/10/15 03:31:17;;;;;;;0.40;0.40;;;6.10;99.90;;;;;;5016090;28;20478;-80
2021/10/15 03:33:44;;;;;;;0.30;0.30;;;6.10;99.90;;;;;;5016432;28;20452;-79
2021/10/15 03:36:10;;;;;;;0.60;0.60;;;6.10;99.90;;;;;;5015903;28;20447;-79
2021/10/15 03:38:39;;;;;;;0.30;0.30;;;6.10;99.90;;;;;;5016318;28;20454;-79
2021/10/15 03:41:06;;;;;;;0.50;0.40;;;6.20;99.90;;;;;;5020286;28;20491;-80
2021/10/15 03:43:32;;;;;;;0.30;0.30;;;6.20;99.90;;;;;;5020668;28;20845;-80
2021/10/15 03:45:59;;;;;;;1.60;0.50;;;6.20;99.90;;;;;;5019795;28;20440;-79
2021/10/15 03:48:26;;;;;;;0.30;0.30;;;6.20;99.90;;;;;;5019924;28;20490;-79
2021/10/15 03:50:53;;;;;;;0.53;0.53;;;6.20;99.90;;;;;;5020038;28;20510;-80
2021/10/15 03:53:20;;;;;;;0.30;0.30;;;6.20;99.90;;;;;;5019338;28;20455;-79
2021/10/15 03:55:48;;;;;;;0.30;0.20;;;6.20;99.90;;;;;;5018762;28;20450;-80
2021/10/15 03:58:14;;;;;;;0.40;0.37;;;6.30;99.90;;;;;;5019376;28;20451;-80
2021/10/15 04:00:41;;;;;;;0.30;0.27;;;6.30;99.90;;;;;;5019298;28;20486;-80
2021/10/15 04:03:08;;;;;;;0.50;0.50;;;6.30;99.90;;;;;;5019166;28;20447;-80
2021/10/15 04:05:35;;;;;;;0.40;0.40;;;6.30;99.90;;;;;;5019077;28;20886;-79
2021/10/15 04:08:01;;;;;;;0.40;0.30;;;6.20;99.90;;;;;;5020407;28;20451;-80
2021/10/15 04:10:28;;;;;;;0.73;0.60;;;6.20;99.90;;;;;;5021167;28;20451;-80
2021/10/15 04:12:57;;;;;;;0.30;0.30;;;6.20;99.90;;;;;;5019095;28;20460;-80
2021/10/15 04:15:23;;;;;;;0.50;0.50;;;6.20;99.90;;;;;;5019301;28;20943;-79
2021/10/15 04:17:50;;;;;;;0.30;0.20;;;6.20;99.90;;;;;;5018400;28;20816;-79
2021/10/15 04:20:17;;;;;;;0.30;0.30;;;6.20;99.90;;;;;;5017653;28;20479;-79
2021/10/15 04:22:43;;;;;;;0.30;0.30;;;6.20;99.90;;;;;;5019925;28;20463;-79
2021/10/15 04:25:10;;;;;;;0.60;0.30;;;6.20;99.90;;;;;;5022062;28;20443;-79
2021/10/15 04:27:38;;;;;;;0.30;0.30;;;6.20;99.90;;;;;;5020624;28;20448;-79
2021/10/15 04:30:07;;;;;;;0.30;0.30;;;6.20;99.90;;;;;;5023283;28;20420;-79
2021/10/15 04:32:33;;;;;;;0.30;0.20;;;6.20;99.90;;;;;;5021474;28;20474;-79
2021/10/15 04:35:00;;;;;;;0.60;0.60;;;6.20;99.90;;;;;;5020862;28;20462;-79
2021/10/15 04:37:27;;;;;;;0.30;0.20;;;6.20;99.90;;;;;;5020993;28;20456;-79
2021/10/15 04:39:54;;;;;;;0.30;0.20;;;6.20;99.90;;;;;;5019816;28;20436;-79
2021/10/15 04:42:20;;;;;;;0.80;0.33;;;6.30;99.90;;;;;;5021124;28;20467;-79
2021/10/15 04:44:47;;;;;;;0.37;0.30;;;6.30;99.90;;;;;;5020807;28;20459;-79
2021/10/15 04:47:15;;;;;;;0.30;0.20;;;6.30;99.90;;;;;;5021025;28;20482;-79
2021/10/15 04:49:42;;;;;;;1.03;0.40;;;6.30;99.90;;;;;;5020555;28;20491;-79
2021/10/15 04:52:09;;;;;;;0.63;0.63;;;6.30;99.90;;;;;;5021766;28;20530;-79
2021/10/15 04:54:36;;;;;;;0.30;0.20;;;6.40;99.90;;;;;;5021337;28;20455;-79
2021/10/15 04:57:03;;;;;;;0.50;0.40;;;6.40;99.90;;;;;;5019749;28;20970;-78
2021/10/15 04:59:29;;;;;;;0.30;0.30;;;6.40;99.90;;;;;;5019398;28;20454;-78
2021/10/15 05:01:56;;;;;;;0.30;0.20;;;6.40;99.90;;;;;;5018913;28;20492;-78
2021/10/15 05:04:24;;;;;;;0.43;0.30;;;6.50;99.90;;;;;;5018511;28;20831;-81
2021/10/15 05:06:51;;;;;;;0.30;0.30;;;6.50;99.90;;;;;;5018943;28;20899;-81
2021/10/15 05:09:33;;;;;;;0.30;0.30;;;6.50;99.90;;;;;;5017713;28;20484;-80
2021/10/15 05:12:01;;;;;;;1.40;0.30;;;6.50;99.90;;;;;;5018691;28;20447;-80
2021/10/15 05:14:28;;;;;;;0.30;0.20;;;6.50;99.90;;;;;;5017052;28;20471;-81
2021/10/15 05:16:55;;;;;;;0.30;0.30;;;6.50;99.90;;;;;;5016911;28;20444;-81
2021/10/15 05:19:23;;;;;;;0.30;0.30;;;6.50;99.90;;;;;;5015955;28;20470;-81
2021/10/15 05:21:50;;;;;;;0.30;0.20;;;6.60;99.90;;;;;;5015821;28;20483;-81
2021/10/15 05:24:17;;;;;;;0.80;0.67;;;6.60;99.90;;;;;;5015344;28;20815;-79
2021/10/15 05:26:44;;;;;;;0.40;0.40;;;6.70;99.90;;;;;;5015430;28;20814;-79
2021/10/15 05:29:10;;;;;;;0.90;0.90;;;6.60;99.90;;;;;;5015321;28;20455;-79
2021/10/15 05:31:38;;;;;;;0.40;0.40;;;6.60;99.90;;;;;;5015601;28;20478;-78
2021/10/15 05:34:04;;;;;;;0.30;0.30;;;6.60;99.90;;;;;;5015468;28;20463;-78
2021/10/15 05:36:32;;;;;;;0.30;0.20;;;6.60;99.90;;;;;;5015367;28;20452;-78
2021/10/15 05:38:59;;;;;;;0.30;0.30;;;6.60;99.90;;;;;;5015008;28;20438;-78
2021/10/15 05:41:26;;;;;;;2.10;0.50;;;6.60;99.90;;;;;;5015116;28;20496;-78
2021/10/15 05:43:53;;;;;;;0.40;0.40;;;6.50;99.90;;;;;;5015222;28;20458;-79
2021/10/15 05:46:20;;;;;;;0.53;0.50;;;6.50;99.90;;;;;;5015277;28;20458;-79
2021/10/15 05:48:47;;;;;;;0.40;0.40;;;6.50;99.90;;;;;;5014843;28;21033;-79
2021/10/15 05:51:14;;;;;;;0.40;0.30;;;6.50;99.90;;;;;;5014871;28;20486;-79
2021/10/15 05:53:44;;;;;;;0.57;0.53;;;6.50;99.90;;;;;;5015153;28;20475;-78
2021/10/15 05:59:06;;;;;;;0.30;0.30;;;6.50;99.90;;;;;;4979886;28;20439;-78
2021/10/15 06:01:35;;;;;;;0.30;0.30;;;6.50;99.90;;;;;;5014356;28;20483;-78
2021/10/15 06:04:29;;;;;;;0.93;0.40;;;6.50;99.90;;;;;;5015267;28;20455;-78
2021/10/15 06:15:12;;;;;;;0.40;0.30;;;6.50;99.90;;;;;;5015055;28;20408;-79
2021/10/15 06:17:43;;;;;;;0.30;0.30;;;6.50;99.90;;;;;;5015681;28;20443;-80
2021/10/15 06:20:11;;;;;;;0.50;0.30;;;6.60;99.90;;;;;;5016264;28;20519;-80
2021/10/15 06:22:38;;;;;;;0.33;0.30;;;6.60;99.90;;;;;;5016041;28;20840;-80
2021/10/15 06:25:06;;;;;;;1.17;0.30;;;6.60;99.90;;;;;;5014838;28;20412;-80
2021/10/15 06:27:34;;;;;;;0.40;0.30;;;6.60;99.90;;;;;;5014690;28;20444;-80
2021/10/15 06:30:01;;;;;;;0.50;0.50;;;6.60;99.90;;;;;;5014513;28;20486;-79
2021/10/15 06:32:28;;;;;;;0.30;0.20;;;6.60;99.90;;;;;;5014214;28;20547;-80
2021/10/15 06:34:55;;;;;;;0.33;0.30;;;6.60;99.90;;;;;;5014243;28;20436;-80
2021/10/15 06:37:21;;;;;;;0.33;0.33;;;6.70;99.90;;;;;;5013966;28;20896;-80
2021/10/15 06:39:48;;;;;;;0.30;0.30;;;6.80;99.90;;;;;;5014984;28;20448;-78
2021/10/15 06:42:17;;;;;;;0.30;0.30;;;6.90;99.90;;;;;;5014067;28;20498;-81
2021/10/15 06:44:43;;;;;;;0.30;0.30;;;6.90;99.90;;;;;;5014126;28;20436;-79
2021/10/15 06:47:10;;;;;;;0.30;0.30;;;6.90;99.90;;;;;;5014161;28;20437;-80
2021/10/15 06:49:37;;;;;;;1.23;0.40;;;7.00;99.90;;;;;;5013723;28;20479;-79
2021/10/15 06:52:04;;;;;;;0.83;0.30;;;7.00;99.90;;;;;;5013924;28;20475;-79
2021/10/15 06:54:31;;;;;;;0.40;0.40;;;7.00;99.90;;;;;;5013796;28;20420;-79
2021/10/15 06:56:58;;;;;;;0.70;0.67;;;7.00;99.90;;;;;;5013794;28;20455;-79
2021/10/15 06:59:26;;;;;;;0.70;0.70;;;7.00;99.90;;;;;;5013807;28;20839;-79
2021/10/15 07:01:53;;;;;;;0.40;0.30;;;7.10;99.90;;;;;;5013701;28;20503;-79
2021/10/15 07:04:20;;;;;;;0.40;0.40;;;7.00;99.90;;;;;;5013765;28;20531;-79
2021/10/15 07:06:47;;;;;;;0.50;0.40;;;7.10;99.90;;;;;;5013428;28;20974;-79
2021/10/15 07:09:14;;;;;;;0.40;0.37;;;7.10;99.90;;;;;;5013780;28;20527;-81
2021/10/15 07:11:41;;;;;;;0.40;0.40;;;7.10;99.90;;;;;;5013344;28;20558;-81
2021/10/15 07:14:07;;;;;;;0.53;0.33;;;7.10;99.90;;;;;;5013600;28;20455;-79
2021/10/15 07:16:35;;;;;;;0.30;0.20;;;7.10;99.90;;;;;;5013712;28;20448;-79
2021/10/15 07:19:02;;;;;;;0.40;0.30;;;7.10;99.90;;;;;;5013626;28;20447;-81
2021/10/15 07:21:29;;;;;;;0.40;0.37;;;7.10;99.90;;;;;;5013472;28;20494;-83
2021/10/15 07:23:56;;;;;;;0.30;0.20;;;7.20;99.90;;;;;;5013326;28;20458;-82
2021/10/15 07:26:23;;;;;;;0.53;0.40;;;7.30;99.90;;;;;;5014638;28;20451;-83
2021/10/15 07:28:50;;;;;;;0.57;0.50;;;7.30;99.90;;;;;;5017976;28;20530;-84
2021/10/15 07:31:17;;;;;;;0.40;0.30;;;7.40;99.90;;;;;;5020048;28;20464;-84
2021/10/15 07:33:47;;;;;;;1.23;0.40;;;7.40;99.90;;;;;;5016349;28;20458;-85
2021/10/15 07:36:14;;;;;;;0.43;0.30;;;7.50;99.90;;;;;;5016706;28;20459;-84
2021/10/15 07:38:41;;;;;;;0.53;0.50;;;7.60;99.90;;;;;;5016168;28;20474;-84
2021/10/15 07:41:09;;;;;;;0.50;0.50;;;7.60;99.90;;;;;;5013564;28;20483;-83
2021/10/15 07:43:36;;;;;;;0.40;0.30;;;7.70;99.90;;;;;;5013489;28;20538;-83
2021/10/15 07:46:03;;;;;;;0.67;0.60;;;7.80;99.90;;;;;;5013544;28;20478;-85
2021/10/15 07:48:31;;;;;;;0.30;0.30;;;7.90;99.90;;;;;;5012978;28;20510;-86
2021/10/15 07:50:59;;;;;;;0.47;0.47;;;7.90;99.90;;;;;;5013223;28;20798;-83
2021/10/15 07:53:26;;;;;;;0.30;0.30;;;8.00;99.90;;;;;;5013021;28;20806;-84
2021/10/15 07:55:54;;;;;;;0.30;0.30;;;8.10;99.90;;;;;;5013247;28;20467;-83
2021/10/15 07:58:20;;;;;;;0.97;0.40;;;8.20;99.90;;;;;;5013753;28;20447;-84
2021/10/15 08:00:47;;;;;;;0.50;0.40;;;8.40;99.90;;;;;;5012804;28;20436;-83
2021/10/15 08:03:14;;;;;;;0.40;0.30;;;8.50;99.90;;;;;;5013162;28;20456;-83
2021/10/15 08:05:41;;;;;;;0.40;0.30;;;8.60;99.90;;;;;;5013168;28;20804;-83
2021/10/15 08:08:09;;;;;;;2.43;0.30;;;8.80;99.90;;;;;;5012788;28;20458;-83
2021/10/15 08:10:36;;;;;;;0.30;0.30;;;9.00;99.90;;;;;;5013000;28;20452;-83
2021/10/15 08:13:03;;;;;;;0.40;0.30;;;9.20;99.90;;;;;;5013108;28;20466;-84
2021/10/15 08:15:30;;;;;;;0.30;0.30;;;9.30;99.90;;;;;;5013067;28;20452;-83
2021/10/15 08:17:58;;;;;;;0.53;0.37;;;9.40;99.90;;;;;;5013455;28;20459;-82
2021/10/15 08:20:25;;;;;;;1.00;1.00;;;9.50;99.90;;;;;;5013054;28;20448;-83
2021/10/15 08:22:53;;;;;;;0.50;0.40;;;9.60;99.90;;;;;;5012625;28;20479;-82
2021/10/15 08:25:22;;;;;;;0.40;0.40;;;9.80;99.90;;;;;;5014803;28;20455;-83
2021/10/15 08:27:48;;;;;;;4.70;1.67;;;10.00;99.90;;;;;;5016540;28;20465;-83
2021/10/15 08:30:15;;;;;;;0.40;0.40;;;10.20;99.90;;;;;;5016328;28;20977;-83
2021/10/15 08:32:42;;;;;;;0.93;0.40;;;10.40;99.90;;;;;;5016121;28;20855;-83
2021/10/15 08:35:10;;;;;;;0.50;0.50;;;10.50;99.90;;;;;;5016066;28;20455;-83
2021/10/15 08:37:38;;;;;;;0.30;0.30;;;10.70;99.90;;;;;;5016165;28;20887;-83
2021/10/15 08:40:06;;;;;;;0.40;0.30;;;10.90;99.90;;;;;;5016381;28;20442;-83
2021/10/15 08:42:35;;;;;;;0.40;0.40;;;11.00;99.90;;;;;;5015987;28;20484;-83
2021/10/15 08:45:02;;;;;;;0.40;0.33;;;11.30;99.90;;;;;;5016728;28;20436;-83
2021/10/15 08:47:29;;;;;;;0.50;0.47;;;11.60;99.90;;;;;;5016024;28;20436;-83
2021/10/15 08:49:56;;;;;;;0.37;0.30;;;12.00;99.90;;;;;;5016079;28;20969;-83
2021/10/15 08:52:23;;;;;;;0.40;0.30;;;12.30;99.90;;;;;;5016050;28;20826;-83
2021/10/15 08:54:50;;;;;;;5.17;2.83;;;12.60;99.90;;;;;;5016143;28;20538;-85
2021/10/15 08:57:16;;;;;;;0.97;0.97;;;12.90;99.90;;;;;;5016015;28;20436;-83
2021/10/15 08:59:47;;;;;;;0.37;0.30;;;13.50;99.90;;;;;;5015718;28;20412;-83
2021/10/15 09:02:15;;;;;;;0.53;0.50;;;14.40;99.90;;;;;;5016623;28;20487;-82
2021/10/15 09:04:51;;;;;;;0.30;0.30;;;15.10;99.90;;;;;;5015596;28;20931;-81
2021/10/15 09:07:20;;;;;;;1.30;0.70;;;16.00;99.90;;;;;;5015786;28;20526;-81
2021/10/15 09:09:49;;;;;;;0.40;0.40;;;16.50;99.90;;;;;;5015754;28;20502;-81
2021/10/15 09:12:18;;;;;;;0.40;0.40;;;16.70;99.90;;;;;;5015475;28;20463;-81
2021/10/15 09:14:47;;;;;;;1.27;0.80;;;16.90;99.90;;;;;;5015653;28;20444;-81
2021/10/15 09:17:16;;;;;;;0.50;0.50;;;17.10;99.90;;;;;;5015653;28;20458;-81
2021/10/15 09:19:45;;;;;;;1.53;0.70;;;17.20;99.90;;;;;;5015662;28;20432;-79
2021/10/15 09:22:18;;;;;;;0.40;0.40;;;17.20;99.90;;;;;;5015194;28;20853;-79
2021/10/15 09:24:48;;;;;;;0.73;0.60;;;17.10;99.90;;;;;;5015441;28;20443;-79
2021/10/15 09:27:18;;;;;;;0.50;0.50;;;17.20;99.90;;;;;;5015140;28;20899;-79
2021/10/15 09:29:48;;;;;;;0.40;0.40;;;17.00;99.90;;;;;;5015037;28;20927;-79
2021/10/15 09:32:17;;;;;;;0.50;0.50;;;16.90;99.90;;;;;;5015174;28;20460;-82
2021/10/15 09:34:44;;;;;;;1.80;0.77;;;16.80;99.90;;;;;;5015017;28;20416;-79
2021/10/15 09:37:16;;;;;;;1.27;0.70;;;16.40;99.90;;;;;;5013881;28;20439;-80
2021/10/15 09:39:42;;;;;;;1.10;1.00;;;16.40;99.90;;;;;;5015157;28;20443;-79
2021/10/15 09:42:27;;;;;;;0.50;0.50;;;16.50;99.90;;;;;;5014948;28;20494;-79
2021/10/15 09:45:01;;;;;;;0.60;0.50;;;16.60;99.90;;;;;;5014597;28;20809;-77
2021/10/15 09:47:28;;;;;;;0.50;0.50;;;16.80;99.90;;;;;;5014615;28;20467;-77
2021/10/15 09:49:57;;;;;;;0.70;0.70;;;17.00;99.90;;;;;;5015044;28;20471;-75
2021/10/15 09:52:32;;;;;;;1.37;0.40;;;17.30;99.90;;;;;;5014638;28;20476;-79
2021/10/15 09:55:03;;;;;;;0.40;0.40;;;17.50;99.90;;;;;;5014656;28;20435;-79
2021/10/15 09:57:36;;;;;;;1.13;0.50;;;17.80;99.90;;;;;;5015016;28;20435;-77
2021/10/15 10:00:08;;;;;;;0.50;0.50;;;18.30;99.90;;;;;;5014480;28;20904;-77
2021/10/15 10:02:36;;;;;;;0.70;0.60;;;18.90;99.90;;;;;;5014304;28;20523;-77
2021/10/15 10:05:04;;;;;;;0.60;0.53;;;19.80;99.90;;;;;;5014472;28;20439;-78
2021/10/15 10:07:34;;;;;;;0.50;0.50;;;20.20;96.60;;;;;;5014703;28;20431;-78
2021/10/15 10:10:00;;;;;;;0.40;0.40;;;20.90;94.90;;;;;;5014727;28;20427;-78
2021/10/15 10:12:28;;;;;;;0.87;0.50;;;20.90;93.60;;;;;;5014603;28;20463;-79
2021/10/15 10:14:55;;;;;;;0.50;0.40;;;20.90;92.40;;;;;;5014641;28;20434;-78
2021/10/15 10:17:25;;;;;;;0.40;0.40;;;20.60;93.50;;;;;;5014548;28;20439;-78
2021/10/15 10:19:57;;;;;;;0.40;0.40;;;20.50;93.00;;;;;;5014297;28;20973;-76
2021/10/15 10:22:27;;;;;;;0.60;0.60;;;20.30;92.50;;;;;;5014048;28;20487;-76
2021/10/15 10:24:56;;;;;;;1.23;0.60;;;20.20;92.70;;;;;;5014114;28;20431;-76
2021/10/15 10:27:28;;;;;;;0.70;0.60;;;20.90;91.30;;;;;;5014409;28;20431;-76
2021/10/15 10:29:55;;;;;;;0.90;0.50;;;21.40;91.70;;;;;;5014032;28;20431;-76
2021/10/15 10:32:25;;;;;;;0.60;0.50;;;21.90;86.90;;;;;;5013920;28;20466;-76
2021/10/15 10:34:53;;;;;;;0.70;0.60;;;21.90;86.20;;;;;;5014190;28;20440;-77
2021/10/15 10:37:21;;;;;;;0.50;0.50;;;21.40;86.00;;;;;;5013953;28;20176;-76
2021/10/15 10:40:04;;;;;;;2.03;0.90;;;21.20;86.30;;;;;;5014148;28;20188;-79
2021/10/15 10:42:31;;;;;;;1.13;0.60;;;21.00;86.90;;;;;;5013619;28;20490;-78
2021/10/15 10:45:11;;;;;;;0.77;0.53;;;20.70;86.70;;;;;;5013787;28;20189;-78
2021/10/15 10:47:39;;;;;;;0.93;0.80;;;20.10;87.40;;;;;;5013484;28;20447;-79
2021/10/15 10:50:13;;;;;;;0.43;0.43;;;19.60;86.80;;;;;;5013683;28;20915;-78
2021/10/15 10:53:07;;;;;;;0.70;0.60;;;19.00;90.40;;;;;;5014694;28;20517;-78
2021/10/15 10:55:42;;;;;;;0.60;0.60;;;18.30;91.50;;;;;;5013879;28;20527;-78
2021/10/15 10:58:32;;;;;;;0.80;0.80;;;17.90;93.00;;;;;;5013842;28;20482;-78
2021/10/15 11:01:27;;;;;;;1.00;0.80;;;17.40;93.80;;;;;;5013714;28;20468;-78
2021/10/15 11:03:56;;;;;;;1.67;0.70;;;16.90;94.60;;;;;;5013733;28;20511;-79
2021/10/15 11:06:24;;;;;;;0.40;0.40;;;16.80;95.10;;;;;;5013745;28;20444;-78
2021/10/15 11:08:51;;;;;;;0.60;0.60;;;16.50;95.80;;;;;;5013685;28;20475;-79
2021/10/15 11:11:43;;;;;;;0.60;0.60;;;16.40;97.40;;;;;;5013591;28;20472;-79
2021/10/15 11:14:49;;;;;;;1.33;0.50;;;16.30;97.30;;;;;;5013569;28;20428;-79
2021/10/15 11:17:17;;;;;;;0.60;0.40;;;16.40;98.00;;;;;;5010820;28;20482;-79
2021/10/15 11:19:45;;;;;;;0.40;0.30;;;16.40;97.90;;;;;;5013304;28;20908;-79
2021/10/15 11:22:12;;;;;;;0.57;0.57;;;16.50;96.20;;;;;;5013378;28;20487;-79
2021/10/15 11:24:39;;;;;;;0.40;0.40;;;16.40;97.40;;;;;;5013237;28;20962;-79
2021/10/15 11:27:16;;;;;;;1.07;0.50;;;16.40;97.00;;;;;;5013575;28;20455;-79
2021/10/15 11:29:51;;;;;;;0.97;0.73;;;16.20;96.80;;;;;;5013586;28;20450;-80
2021/10/15 11:32:35;;;;;;;0.70;0.70;;;16.20;97.90;;;;;;5013137;28;20970;-79
2021/10/15 11:35:10;;;;;;;0.40;0.40;;;16.20;97.00;;;;;;5013210;28;20526;-79
2021/10/15 11:37:59;;;;;;;0.77;0.77;;;16.00;96.90;;;;;;5013557;28;20426;-77
2021/10/15 11:40:33;;;;;;;0.73;0.73;;;15.90;99.10;;;;;;5007947;28;20831;-79
2021/10/15 11:43:08;;;;;;;1.43;0.40;;;15.90;98.80;;;;;;5013558;28;20467;-79
2021/10/15 11:45:37;;;;;;;0.40;0.40;;;16.00;98.40;;;;;;5013502;28;20454;-79
2021/10/15 11:48:07;;;;;;;0.47;0.43;;;15.90;98.20;;;;;;5013333;28;20491;-76
2021/10/15 11:50:45;;;;;;;0.60;0.60;;;15.80;98.50;;;;;;5013425;28;20436;-79
2021/10/15 11:53:13;;;;;;;0.50;0.40;;;15.80;99.30;;;;;;5013523;28;20498;-79
2021/10/15 11:55:41;;;;;;;1.07;0.60;;;15.80;98.40;;;;;;5013192;28;20798;-85
2021/10/15 11:58:36;;;;;;;0.40;0.40;;;15.70;98.50;;;;;;5013299;28;20462;-79
2021/10/15 12:01:09;;;;;;;0.50;0.40;;;15.70;98.30;;;;;;5016285;28;20472;-79
2021/10/15 12:03:37;;;;;;;0.43;0.40;;;15.60;99.10;;;;;;5016674;28;20464;-79
2021/10/15 12:06:13;;;;;;;0.50;0.50;;;15.50;99.90;;;;;;5016986;28;20442;-79
2021/10/15 12:08:41;;;;;;;0.80;0.50;;;15.40;99.90;;;;;;5016644;28;20467;-80
2021/10/15 12:11:14;;;;;;;0.40;0.30;;;15.40;99.90;;;;;;5016822;28;20478;-79
2021/10/15 12:13:41;;;;;;;1.53;0.40;;;15.20;99.90;;;;;;5016863;28;20432;-78
2021/10/15 12:16:23;;;;;;;0.53;0.53;;;15.10;99.90;;;;;;5016434;28;20831;-79
2021/10/15 12:18:58;;;;;;;0.50;0.40;;;15.10;99.90;;;;;;5016969;28;20447;-79
2021/10/15 12:21:32;;;;;;;0.40;0.40;;;15.10;99.90;;;;;;5016906;28;20470;-79
2021/10/15 12:23:59;;;;;;;0.43;0.43;;;15.10;99.90;;;;;;5016579;28;20471;-79
2021/10/15 12:26:26;;;;;;;0.60;0.60;;;15.10;99.90;;;;;;5016532;28;20451;-79
2021/10/15 12:28:52;;;;;;;0.57;0.53;;;15.00;99.90;;;;;;5016555;28;20807;-79
2021/10/15 12:31:31;;;;;;;0.40;0.40;;;15.00;99.90;;;;;;5016402;28;20475;-79
2021/10/15 12:34:06;;;;;;;0.40;0.30;;;15.00;99.90;;;;;;5016413;28;20446;-79
2021/10/15 12:36:36;;;;;;;0.43;0.43;;;15.00;99.90;;;;;;5016388;28;20447;-79
2021/10/15 12:39:18;;;;;;;1.17;0.70;;;15.00;99.90;;;;;;5016324;28;20443;-79
2021/10/15 12:41:45;;;;;;;0.40;0.40;;;15.00;99.90;;;;;;5016267;28;20822;-79
2021/10/15 12:44:24;;;;;;;1.00;0.47;;;15.00;99.90;;;;;;5015890;28;20471;-80
2021/10/15 12:46:55;;;;;;;0.50;0.50;;;15.00;99.90;;;;;;5015917;28;20946;-79
2021/10/15 12:49:22;;;;;;;0.57;0.53;;;14.90;99.90;;;;;;5015678;28;20483;-80
2021/10/15 12:51:50;;;;;;;0.50;0.40;;;14.90;99.90;;;;;;5016709;28;20487;-79
2021/10/15 12:54:39;;;;;;;0.50;0.40;;;14.90;99.90;;;;;;5015712;28;20824;-79
2021/10/15 12:57:14;;;;;;;0.37;0.30;;;14.90;99.90;;;;;;5016019;28;20439;-77
2021/10/15 12:59:42;;;;;;;0.30;0.30;;;14.90;99.90;;;;;;5016068;28;20459;-76
2021/10/15 13:02:10;;;;;;;0.50;0.50;;;14.90;99.90;;;;;;5015523;28;20843;-77
2021/10/15 13:04:37;;;;;;;0.47;0.47;;;15.00;99.90;;;;;;5015452;28;21025;-77
2021/10/15 13:07:06;;;;;;;0.70;0.70;;;15.10;99.90;;;;;;5015813;28;20452;-77
2021/10/15 13:09:33;;;;;;;0.40;0.30;;;15.10;99.90;;;;;;5015788;28;20455;-77
2021/10/15 13:12:00;;;;;;;0.50;0.50;;;15.20;99.90;;;;;;5015475;28;20524;-77
2021/10/15 13:14:29;;;;;;;0.40;0.40;;;15.20;99.90;;;;;;5016261;28;20427;-77